Aviation Digital Data Service (ADDS)

Output produced by TAFs form (1255 UTC 30 March 2015)
found at http://aviationweather.gov/adds/tafs/
 
KASE 301120Z 3012/3112 20006KT P6SM FEW200 
     FM301500 VRB03KT P6SM SCT200 
     FM301800 34008G15KT P6SM FEW090 FEW200 
     FM310200 20008KT P6SM SCT250